sensor_id;sensor_type;location;lat;lon;timestamp;P1;durP1;ratioP1;P2;durP2;ratioP2
67597;SDS011;62026;39.230;9.122;2023-05-07T00:00:52;4.80;;;2.75;;
67597;SDS011;62026;39.230;9.122;2023-05-07T00:03:18;5.82;;;2.75;;
67597;SDS011;62026;39.230;9.122;2023-05-07T00:05:45;3.97;;;2.42;;
67597;SDS011;62026;39.230;9.122;2023-05-07T00:08:11;5.47;;;2.70;;
67597;SDS011;62026;39.230;9.122;2023-05-07T00:10:37;4.80;;;2.70;;
67597;SDS011;62026;39.230;9.122;2023-05-07T00:13:03;5.70;;;2.72;;
67597;SDS011;62026;39.230;9.122;2023-05-07T00:15:29;24.50;;;3.05;;
67597;SDS011;62026;39.230;9.122;2023-05-07T00:17:55;7.93;;;2.85;;
67597;SDS011;62026;39.230;9.122;2023-05-07T00:20:23;6.45;;;2.92;;
67597;SDS011;62026;39.230;9.122;2023-05-07T00:22:49;5.90;;;2.65;;
67597;SDS011;62026;39.230;9.122;2023-05-07T00:25:15;4.30;;;2.75;;
67597;SDS011;62026;39.230;9.122;2023-05-07T00:27:41;4.50;;;2.67;;
67597;SDS011;62026;39.230;9.122;2023-05-07T00:30:08;7.70;;;2.78;;
67597;SDS011;62026;39.230;9.122;2023-05-07T00:32:35;4.60;;;2.60;;
67597;SDS011;62026;39.230;9.122;2023-05-07T00:35:02;5.93;;;2.95;;
67597;SDS011;62026;39.230;9.122;2023-05-07T00:37:29;3.90;;;2.50;;
67597;SDS011;62026;39.230;9.122;2023-05-07T00:39:55;3.38;;;2.45;;
67597;SDS011;62026;39.230;9.122;2023-05-07T00:42:21;3.67;;;2.50;;
67597;SDS011;62026;39.230;9.122;2023-05-07T00:44:47;3.00;;;2.63;;
67597;SDS011;62026;39.230;9.122;2023-05-07T00:47:13;3.15;;;2.75;;
67597;SDS011;62026;39.230;9.122;2023-05-07T00:49:43;6.60;;;2.90;;
67597;SDS011;62026;39.230;9.122;2023-05-07T00:52:11;7.38;;;2.75;;
67597;SDS011;62026;39.230;9.122;2023-05-07T00:54:42;5.60;;;2.78;;
67597;SDS011;62026;39.230;9.122;2023-05-07T00:57:09;4.35;;;2.75;;
67597;SDS011;62026;39.230;9.122;2023-05-07T00:59:36;6.25;;;2.72;;
67597;SDS011;62026;39.230;9.122;2023-05-07T01:02:03;6.00;;;3.20;;
67597;SDS011;62026;39.230;9.122;2023-05-07T01:04:29;5.28;;;3.00;;
67597;SDS011;62026;39.230;9.122;2023-05-07T01:06:55;6.25;;;2.92;;
67597;SDS011;62026;39.230;9.122;2023-05-07T01:09:24;8.75;;;3.45;;
67597;SDS011;62026;39.230;9.122;2023-05-07T01:11:51;6.32;;;3.05;;
67597;SDS011;62026;39.230;9.122;2023-05-07T01:14:18;7.75;;;3.53;;
67597;SDS011;62026;39.230;9.122;2023-05-07T01:16:46;7.18;;;3.20;;
67597;SDS011;62026;39.230;9.122;2023-05-07T01:19:14;8.25;;;3.22;;
67597;SDS011;62026;39.230;9.122;2023-05-07T01:21:47;6.15;;;2.97;;
67597;SDS011;62026;39.230;9.122;2023-05-07T01:24:17;7.03;;;2.80;;
67597;SDS011;62026;39.230;9.122;2023-05-07T01:26:44;5.50;;;2.92;;
67597;SDS011;62026;39.230;9.122;2023-05-07T01:29:12;7.28;;;3.00;;
67597;SDS011;62026;39.230;9.122;2023-05-07T01:31:38;4.95;;;3.05;;
67597;SDS011;62026;39.230;9.122;2023-05-07T01:34:07;8.48;;;3.10;;
67597;SDS011;62026;39.230;9.122;2023-05-07T01:36:37;6.50;;;3.13;;
67597;SDS011;62026;39.230;9.122;2023-05-07T01:39:05;6.03;;;2.78;;
67597;SDS011;62026;39.230;9.122;2023-05-07T01:41:33;6.43;;;3.20;;
67597;SDS011;62026;39.230;9.122;2023-05-07T01:44:00;7.90;;;3.30;;
67597;SDS011;62026;39.230;9.122;2023-05-07T01:46:28;5.78;;;2.95;;
67597;SDS011;62026;39.230;9.122;2023-05-07T01:48:56;6.70;;;2.90;;
67597;SDS011;62026;39.230;9.122;2023-05-07T01:51:22;4.82;;;3.17;;
67597;SDS011;62026;39.230;9.122;2023-05-07T01:53:49;8.73;;;3.25;;
67597;SDS011;62026;39.230;9.122;2023-05-07T01:56:18;7.88;;;3.03;;
67597;SDS011;62026;39.230;9.122;2023-05-07T01:58:45;5.90;;;3.00;;
67597;SDS011;62026;39.230;9.122;2023-05-07T02:01:12;8.93;;;2.97;;
67597;SDS011;62026;39.230;9.122;2023-05-07T02:03:40;9.63;;;3.20;;
67597;SDS011;62026;39.230;9.122;2023-05-07T02:06:13;4.72;;;3.03;;
67597;SDS011;62026;39.230;9.122;2023-05-07T02:08:39;4.10;;;3.17;;
67597;SDS011;62026;39.230;9.122;2023-05-07T02:11:05;5.18;;;3.28;;
67597;SDS011;62026;39.230;9.122;2023-05-07T02:13:33;4.78;;;2.92;;
67597;SDS011;62026;39.230;9.122;2023-05-07T02:16:02;4.43;;;3.10;;
67597;SDS011;62026;39.230;9.122;2023-05-07T02:18:29;6.35;;;3.30;;
67597;SDS011;62026;39.230;9.122;2023-05-07T02:20:55;5.00;;;3.25;;
67597;SDS011;62026;39.230;9.122;2023-05-07T02:23:21;6.65;;;3.45;;
67597;SDS011;62026;39.230;9.122;2023-05-07T02:25:48;5.00;;;3.00;;
67597;SDS011;62026;39.230;9.122;2023-05-07T02:28:14;5.03;;;2.90;;
67597;SDS011;62026;39.230;9.122;2023-05-07T02:31:09;4.25;;;2.70;;
67597;SDS011;62026;39.230;9.122;2023-05-07T02:33:35;6.13;;;2.90;;
67597;SDS011;62026;39.230;9.122;2023-05-07T02:36:10;4.82;;;3.00;;
67597;SDS011;62026;39.230;9.122;2023-05-07T02:38:47;5.47;;;2.83;;
67597;SDS011;62026;39.230;9.122;2023-05-07T02:41:13;5.82;;;2.90;;
67597;SDS011;62026;39.230;9.122;2023-05-07T02:43:39;4.10;;;2.70;;
67597;SDS011;62026;39.230;9.122;2023-05-07T02:46:07;5.10;;;2.80;;
67597;SDS011;62026;39.230;9.122;2023-05-07T02:48:38;5.57;;;2.85;;
67597;SDS011;62026;39.230;9.122;2023-05-07T02:51:04;3.50;;;2.45;;
67597;SDS011;62026;39.230;9.122;2023-05-07T02:53:31;3.15;;;2.58;;
67597;SDS011;62026;39.230;9.122;2023-05-07T02:55:59;5.93;;;2.58;;
67597;SDS011;62026;39.230;9.122;2023-05-07T02:58:25;5.68;;;2.58;;
67597;SDS011;62026;39.230;9.122;2023-05-07T03:00:52;5.20;;;2.70;;
67597;SDS011;62026;39.230;9.122;2023-05-07T03:03:30;5.13;;;2.50;;
67597;SDS011;62026;39.230;9.122;2023-05-07T03:05:56;3.25;;;2.55;;
67597;SDS011;62026;39.230;9.122;2023-05-07T03:08:22;3.50;;;2.30;;
67597;SDS011;62026;39.230;9.122;2023-05-07T03:10:49;3.33;;;2.20;;
67597;SDS011;62026;39.230;9.122;2023-05-07T03:13:15;5.22;;;2.42;;
67597;SDS011;62026;39.230;9.122;2023-05-07T03:15:42;5.85;;;2.30;;
67597;SDS011;62026;39.230;9.122;2023-05-07T03:18:08;3.20;;;2.33;;
67597;SDS011;62026;39.230;9.122;2023-05-07T03:20:34;4.20;;;2.40;;
67597;SDS011;62026;39.230;9.122;2023-05-07T03:23:01;2.60;;;2.10;;
67597;SDS011;62026;39.230;9.122;2023-05-07T03:25:28;4.25;;;2.22;;
67597;SDS011;62026;39.230;9.122;2023-05-07T03:27:55;3.08;;;2.20;;
67597;SDS011;62026;39.230;9.122;2023-05-07T03:30:26;4.25;;;2.08;;
67597;SDS011;62026;39.230;9.122;2023-05-07T03:32:52;5.53;;;2.30;;
67597;SDS011;62026;39.230;9.122;2023-05-07T03:35:18;5.00;;;2.20;;
67597;SDS011;62026;39.230;9.122;2023-05-07T03:37:45;2.65;;;2.00;;
67597;SDS011;62026;39.230;9.122;2023-05-07T03:40:11;3.75;;;2.40;;
67597;SDS011;62026;39.230;9.122;2023-05-07T03:42:45;3.28;;;2.63;;
67597;SDS011;62026;39.230;9.122;2023-05-07T03:45:13;7.57;;;2.45;;
67597;SDS011;62026;39.230;9.122;2023-05-07T03:47:43;6.40;;;2.35;;
67597;SDS011;62026;39.230;9.122;2023-05-07T03:50:11;4.70;;;2.30;;
67597;SDS011;62026;39.230;9.122;2023-05-07T03:52:38;3.63;;;2.28;;
67597;SDS011;62026;39.230;9.122;2023-05-07T03:55:06;4.78;;;2.33;;
67597;SDS011;62026;39.230;9.122;2023-05-07T03:57:34;3.03;;;2.10;;
67597;SDS011;62026;39.230;9.122;2023-05-07T04:00:00;2.90;;;2.05;;
67597;SDS011;62026;39.230;9.122;2023-05-07T04:02:30;3.03;;;2.25;;
67597;SDS011;62026;39.230;9.122;2023-05-07T04:04:57;5.03;;;2.50;;
67597;SDS011;62026;39.230;9.122;2023-05-07T04:07:24;4.65;;;2.45;;
67597;SDS011;62026;39.230;9.122;2023-05-07T04:09:50;2.33;;;1.80;;
67597;SDS011;62026;39.230;9.122;2023-05-07T04:12:16;5.63;;;2.42;;
67597;SDS011;62026;39.230;9.122;2023-05-07T04:14:42;2.67;;;2.17;;
67597;SDS011;62026;39.230;9.122;2023-05-07T04:17:08;3.33;;;2.30;;
67597;SDS011;62026;39.230;9.122;2023-05-07T04:19:37;5.82;;;2.40;;
67597;SDS011;62026;39.230;9.122;2023-05-07T04:22:03;3.60;;;2.22;;
67597;SDS011;62026;39.230;9.122;2023-05-07T04:24:32;3.50;;;2.60;;
67597;SDS011;62026;39.230;9.122;2023-05-07T04:27:00;4.07;;;2.33;;
67597;SDS011;62026;39.230;9.122;2023-05-07T04:29:26;4.45;;;2.25;;
67597;SDS011;62026;39.230;9.122;2023-05-07T04:31:53;5.68;;;2.55;;
67597;SDS011;62026;39.230;9.122;2023-05-07T04:34:22;8.85;;;2.53;;
67597;SDS011;62026;39.230;9.122;2023-05-07T04:36:48;4.70;;;2.60;;
67597;SDS011;62026;39.230;9.122;2023-05-07T04:39:14;3.63;;;2.58;;
67597;SDS011;62026;39.230;9.122;2023-05-07T04:41:43;4.55;;;2.58;;
67597;SDS011;62026;39.230;9.122;2023-05-07T04:44:09;4.15;;;2.25;;
67597;SDS011;62026;39.230;9.122;2023-05-07T04:46:36;5.85;;;2.40;;
67597;SDS011;62026;39.230;9.122;2023-05-07T04:49:02;4.40;;;2.60;;
67597;SDS011;62026;39.230;9.122;2023-05-07T04:51:28;7.53;;;2.50;;
67597;SDS011;62026;39.230;9.122;2023-05-07T04:53:54;3.33;;;2.63;;
67597;SDS011;62026;39.230;9.122;2023-05-07T04:56:20;4.80;;;2.67;;
67597;SDS011;62026;39.230;9.122;2023-05-07T04:58:47;9.60;;;2.60;;
67597;SDS011;62026;39.230;9.122;2023-05-07T05:01:15;4.15;;;2.70;;
67597;SDS011;62026;39.230;9.122;2023-05-07T05:03:41;4.85;;;2.60;;
67597;SDS011;62026;39.230;9.122;2023-05-07T05:06:07;3.60;;;2.60;;
67597;SDS011;62026;39.230;9.122;2023-05-07T05:08:33;4.90;;;2.30;;
67597;SDS011;62026;39.230;9.122;2023-05-07T05:11:01;4.22;;;2.60;;
67597;SDS011;62026;39.230;9.122;2023-05-07T05:13:28;5.15;;;2.30;;
67597;SDS011;62026;39.230;9.122;2023-05-07T05:15:54;3.60;;;2.10;;
67597;SDS011;62026;39.230;9.122;2023-05-07T05:18:22;4.90;;;2.15;;
67597;SDS011;62026;39.230;9.122;2023-05-07T05:20:48;2.92;;;1.90;;
67597;SDS011;62026;39.230;9.122;2023-05-07T05:23:14;6.45;;;2.45;;
67597;SDS011;62026;39.230;9.122;2023-05-07T05:25:40;4.05;;;2.17;;
67597;SDS011;62026;39.230;9.122;2023-05-07T05:28:09;4.20;;;2.25;;
67597;SDS011;62026;39.230;9.122;2023-05-07T05:30:35;4.22;;;1.95;;
67597;SDS011;62026;39.230;9.122;2023-05-07T05:33:01;2.83;;;2.00;;
67597;SDS011;62026;39.230;9.122;2023-05-07T05:35:27;4.40;;;2.20;;
67597;SDS011;62026;39.230;9.122;2023-05-07T05:37:56;2.90;;;2.08;;
67597;SDS011;62026;39.230;9.122;2023-05-07T05:40:22;4.90;;;2.20;;
67597;SDS011;62026;39.230;9.122;2023-05-07T05:42:49;4.43;;;2.28;;
67597;SDS011;62026;39.230;9.122;2023-05-07T05:45:16;3.13;;;2.25;;
67597;SDS011;62026;39.230;9.122;2023-05-07T05:47:44;3.33;;;2.20;;
67597;SDS011;62026;39.230;9.122;2023-05-07T05:50:10;4.03;;;2.28;;
67597;SDS011;62026;39.230;9.122;2023-05-07T05:52:36;4.53;;;2.25;;
67597;SDS011;62026;39.230;9.122;2023-05-07T05:55:03;3.00;;;1.90;;
67597;SDS011;62026;39.230;9.122;2023-05-07T05:57:29;5.82;;;2.38;;
67597;SDS011;62026;39.230;9.122;2023-05-07T05:59:56;6.88;;;2.35;;
67597;SDS011;62026;39.230;9.122;2023-05-07T06:02:23;3.45;;;2.40;;
67597;SDS011;62026;39.230;9.122;2023-05-07T06:04:49;3.55;;;2.42;;
67597;SDS011;62026;39.230;9.122;2023-05-07T06:07:18;2.97;;;2.15;;
67597;SDS011;62026;39.230;9.122;2023-05-07T06:09:44;5.35;;;2.60;;
67597;SDS011;62026;39.230;9.122;2023-05-07T06:12:11;4.90;;;2.50;;
67597;SDS011;62026;39.230;9.122;2023-05-07T06:14:37;4.45;;;2.70;;
67597;SDS011;62026;39.230;9.122;2023-05-07T06:17:03;3.85;;;2.58;;
67597;SDS011;62026;39.230;9.122;2023-05-07T06:19:30;5.28;;;2.30;;
67597;SDS011;62026;39.230;9.122;2023-05-07T06:21:58;3.15;;;2.00;;
67597;SDS011;62026;39.230;9.122;2023-05-07T06:24:28;3.17;;;2.17;;
67597;SDS011;62026;39.230;9.122;2023-05-07T06:26:54;2.88;;;1.95;;
67597;SDS011;62026;39.230;9.122;2023-05-07T06:29:20;3.97;;;1.98;;
67597;SDS011;62026;39.230;9.122;2023-05-07T06:31:46;5.22;;;2.33;;
67597;SDS011;62026;39.230;9.122;2023-05-07T06:34:13;3.47;;;2.05;;
67597;SDS011;62026;39.230;9.122;2023-05-07T06:36:40;2.38;;;1.70;;
67597;SDS011;62026;39.230;9.122;2023-05-07T06:39:15;1.92;;;1.60;;
67597;SDS011;62026;39.230;9.122;2023-05-07T06:41:42;3.25;;;1.92;;
67597;SDS011;62026;39.230;9.122;2023-05-07T06:44:16;2.65;;;1.60;;
67597;SDS011;62026;39.230;9.122;2023-05-07T06:46:46;3.53;;;1.90;;
67597;SDS011;62026;39.230;9.122;2023-05-07T06:49:13;2.28;;;1.65;;
67597;SDS011;62026;39.230;9.122;2023-05-07T06:51:39;2.33;;;1.70;;
67597;SDS011;62026;39.230;9.122;2023-05-07T06:54:06;2.10;;;1.77;;
67597;SDS011;62026;39.230;9.122;2023-05-07T06:56:34;3.22;;;1.90;;
67597;SDS011;62026;39.230;9.122;2023-05-07T06:59:01;2.47;;;1.60;;
67597;SDS011;62026;39.230;9.122;2023-05-07T07:01:33;3.17;;;1.73;;
67597;SDS011;62026;39.230;9.122;2023-05-07T07:04:00;3.80;;;1.70;;
67597;SDS011;62026;39.230;9.122;2023-05-07T07:06:28;2.83;;;1.90;;
67597;SDS011;62026;39.230;9.122;2023-05-07T07:08:57;2.28;;;1.90;;
67597;SDS011;62026;39.230;9.122;2023-05-07T07:11:24;2.50;;;1.70;;
67597;SDS011;62026;39.230;9.122;2023-05-07T07:13:50;2.00;;;1.58;;
67597;SDS011;62026;39.230;9.122;2023-05-07T07:16:16;2.90;;;1.80;;
67597;SDS011;62026;39.230;9.122;2023-05-07T07:18:43;2.50;;;1.67;;
67597;SDS011;62026;39.230;9.122;2023-05-07T07:21:10;2.60;;;1.50;;
67597;SDS011;62026;39.230;9.122;2023-05-07T07:23:36;2.08;;;1.67;;
67597;SDS011;62026;39.230;9.122;2023-05-07T07:26:02;2.38;;;1.70;;
67597;SDS011;62026;39.230;9.122;2023-05-07T07:28:28;3.03;;;1.63;;
67597;SDS011;62026;39.230;9.122;2023-05-07T07:30:54;2.30;;;1.58;;
67597;SDS011;62026;39.230;9.122;2023-05-07T07:33:20;4.13;;;2.00;;
67597;SDS011;62026;39.230;9.122;2023-05-07T07:35:46;2.03;;;1.65;;
67597;SDS011;62026;39.230;9.122;2023-05-07T07:38:12;4.22;;;1.63;;
67597;SDS011;62026;39.230;9.122;2023-05-07T07:40:40;2.92;;;1.60;;
67597;SDS011;62026;39.230;9.122;2023-05-07T07:43:07;2.03;;;1.48;;
67597;SDS011;62026;39.230;9.122;2023-05-07T07:45:33;1.85;;;1.40;;
67597;SDS011;62026;39.230;9.122;2023-05-07T07:48:00;3.13;;;1.48;;
67597;SDS011;62026;39.230;9.122;2023-05-07T07:50:26;2.70;;;1.65;;
67597;SDS011;62026;39.230;9.122;2023-05-07T07:52:52;2.53;;;1.70;;
67597;SDS011;62026;39.230;9.122;2023-05-07T07:55:19;2.42;;;1.50;;
67597;SDS011;62026;39.230;9.122;2023-05-07T07:57:50;5.72;;;1.75;;
67597;SDS011;62026;39.230;9.122;2023-05-07T08:00:16;3.03;;;1.65;;
67597;SDS011;62026;39.230;9.122;2023-05-07T08:02:42;4.13;;;1.90;;
67597;SDS011;62026;39.230;9.122;2023-05-07T08:05:11;3.92;;;1.80;;
67597;SDS011;62026;39.230;9.122;2023-05-07T08:07:38;3.25;;;1.55;;
67597;SDS011;62026;39.230;9.122;2023-05-07T08:10:04;2.75;;;1.80;;
67597;SDS011;62026;39.230;9.122;2023-05-07T08:12:31;3.42;;;1.70;;
67597;SDS011;62026;39.230;9.122;2023-05-07T08:14:57;2.22;;;1.80;;
67597;SDS011;62026;39.230;9.122;2023-05-07T08:17:24;2.85;;;1.52;;
67597;SDS011;62026;39.230;9.122;2023-05-07T08:19:50;2.75;;;1.60;;
67597;SDS011;62026;39.230;9.122;2023-05-07T08:22:16;4.85;;;1.95;;
67597;SDS011;62026;39.230;9.122;2023-05-07T08:24:43;1.80;;;1.52;;
67597;SDS011;62026;39.230;9.122;2023-05-07T08:27:10;2.53;;;1.50;;
67597;SDS011;62026;39.230;9.122;2023-05-07T08:29:39;6.05;;;1.38;;
67597;SDS011;62026;39.230;9.122;2023-05-07T08:32:05;3.28;;;1.48;;
67597;SDS011;62026;39.230;9.122;2023-05-07T08:34:31;3.92;;;1.70;;
67597;SDS011;62026;39.230;9.122;2023-05-07T08:37:00;4.82;;;1.65;;
67597;SDS011;62026;39.230;9.122;2023-05-07T08:39:27;2.80;;;1.60;;
67597;SDS011;62026;39.230;9.122;2023-05-07T08:41:55;4.85;;;1.70;;
67597;SDS011;62026;39.230;9.122;2023-05-07T08:44:23;2.00;;;1.70;;
67597;SDS011;62026;39.230;9.122;2023-05-07T08:46:54;3.88;;;1.70;;
67597;SDS011;62026;39.230;9.122;2023-05-07T08:49:23;2.53;;;1.52;;
67597;SDS011;62026;39.230;9.122;2023-05-07T08:51:50;4.50;;;1.85;;
67597;SDS011;62026;39.230;9.122;2023-05-07T08:54:18;4.07;;;2.00;;
67597;SDS011;62026;39.230;9.122;2023-05-07T08:56:47;3.95;;;1.77;;
67597;SDS011;62026;39.230;9.122;2023-05-07T08:59:14;2.70;;;1.50;;
67597;SDS011;62026;39.230;9.122;2023-05-07T09:01:41;4.85;;;1.80;;
67597;SDS011;62026;39.230;9.122;2023-05-07T09:04:08;2.28;;;1.50;;
67597;SDS011;62026;39.230;9.122;2023-05-07T09:06:35;2.35;;;1.60;;
67597;SDS011;62026;39.230;9.122;2023-05-07T09:09:03;2.05;;;1.63;;
67597;SDS011;62026;39.230;9.122;2023-05-07T09:11:31;3.00;;;1.80;;
67597;SDS011;62026;39.230;9.122;2023-05-07T09:13:59;3.92;;;1.70;;
67597;SDS011;62026;39.230;9.122;2023-05-07T09:16:29;2.38;;;1.60;;
67597;SDS011;62026;39.230;9.122;2023-05-07T09:18:58;2.92;;;1.60;;
67597;SDS011;62026;39.230;9.122;2023-05-07T09:21:25;2.08;;;1.60;;
67597;SDS011;62026;39.230;9.122;2023-05-07T09:23:55;1.75;;;1.33;;
67597;SDS011;62026;39.230;9.122;2023-05-07T09:26:27;2.40;;;1.40;;
67597;SDS011;62026;39.230;9.122;2023-05-07T09:28:54;2.42;;;1.50;;
67597;SDS011;62026;39.230;9.122;2023-05-07T09:31:20;3.83;;;1.83;;
67597;SDS011;62026;39.230;9.122;2023-05-07T09:33:48;5.30;;;2.00;;
67597;SDS011;62026;39.230;9.122;2023-05-07T09:36:15;3.65;;;1.77;;
67597;SDS011;62026;39.230;9.122;2023-05-07T09:38:41;2.53;;;1.80;;
67597;SDS011;62026;39.230;9.122;2023-05-07T09:53:06;3.28;;;1.80;;
67597;SDS011;62026;39.230;9.122;2023-05-07T09:55:35;3.30;;;1.75;;
67597;SDS011;62026;39.230;9.122;2023-05-07T09:58:03;2.13;;;1.60;;
67597;SDS011;62026;39.230;9.122;2023-05-07T10:00:32;5.63;;;1.60;;
67597;SDS011;62026;39.230;9.122;2023-05-07T10:03:07;1.67;;;1.40;;
67597;SDS011;62026;39.230;9.122;2023-05-07T10:05:46;4.20;;;1.50;;
67597;SDS011;62026;39.230;9.122;2023-05-07T10:08:14;3.85;;;1.52;;
67597;SDS011;62026;39.230;9.122;2023-05-07T10:10:43;3.17;;;1.35;;
67597;SDS011;62026;39.230;9.122;2023-05-07T10:13:15;2.38;;;1.40;;
67597;SDS011;62026;39.230;9.122;2023-05-07T10:15:47;2.25;;;1.52;;
67597;SDS011;62026;39.230;9.122;2023-05-07T10:18:14;1.98;;;1.60;;
67597;SDS011;62026;39.230;9.122;2023-05-07T10:23:14;4.25;;;1.80;;
67597;SDS011;62026;39.230;9.122;2023-05-07T10:25:48;6.65;;;1.77;;
67597;SDS011;62026;39.230;9.122;2023-05-07T10:28:21;4.35;;;1.63;;
67597;SDS011;62026;39.230;9.122;2023-05-07T10:30:57;2.85;;;1.70;;
67597;SDS011;62026;39.230;9.122;2023-05-07T10:33:48;12.52;;;7.63;;
67597;SDS011;62026;39.230;9.122;2023-05-07T10:36:21;2.40;;;1.90;;
67597;SDS011;62026;39.230;9.122;2023-05-07T10:38:51;5.22;;;1.70;;
67597;SDS011;62026;39.230;9.122;2023-05-07T10:41:18;2.40;;;1.60;;
67597;SDS011;62026;39.230;9.122;2023-05-07T10:43:46;3.92;;;1.70;;
67597;SDS011;62026;39.230;9.122;2023-05-07T10:46:21;4.03;;;1.55;;
67597;SDS011;62026;39.230;9.122;2023-05-07T10:52:13;4.78;;;1.45;;
67597;SDS011;62026;39.230;9.122;2023-05-07T10:55:19;6.50;;;1.70;;
67597;SDS011;62026;39.230;9.122;2023-05-07T10:58:23;3.90;;;1.60;;
67597;SDS011;62026;39.230;9.122;2023-05-07T11:01:08;4.97;;;1.77;;
67597;SDS011;62026;39.230;9.122;2023-05-07T11:17:57;4.13;;;1.50;;
67597;SDS011;62026;39.230;9.122;2023-05-07T11:20:46;4.10;;;1.52;;
67597;SDS011;62026;39.230;9.122;2023-05-07T11:26:17;4.90;;;1.83;;
67597;SDS011;62026;39.230;9.122;2023-05-07T11:28:44;4.60;;;1.70;;
67597;SDS011;62026;39.230;9.122;2023-05-07T11:31:10;3.97;;;1.55;;
67597;SDS011;62026;39.230;9.122;2023-05-07T11:33:38;5.78;;;1.65;;
67597;SDS011;62026;39.230;9.122;2023-05-07T11:36:09;4.05;;;1.70;;
67597;SDS011;62026;39.230;9.122;2023-05-07T11:38:41;6.10;;;1.95;;
67597;SDS011;62026;39.230;9.122;2023-05-07T11:41:07;3.30;;;1.73;;
67597;SDS011;62026;39.230;9.122;2023-05-07T11:43:33;4.60;;;2.10;;
67597;SDS011;62026;39.230;9.122;2023-05-07T11:46:10;6.78;;;2.00;;
67597;SDS011;62026;39.230;9.122;2023-05-07T11:48:38;3.17;;;1.80;;
67597;SDS011;62026;39.230;9.122;2023-05-07T11:51:05;4.47;;;1.90;;
67597;SDS011;62026;39.230;9.122;2023-05-07T11:53:38;6.18;;;1.95;;
67597;SDS011;62026;39.230;9.122;2023-05-07T11:56:11;7.07;;;1.90;;
67597;SDS011;62026;39.230;9.122;2023-05-07T11:58:40;5.68;;;1.60;;
67597;SDS011;62026;39.230;9.122;2023-05-07T12:01:08;4.80;;;1.65;;
67597;SDS011;62026;39.230;9.122;2023-05-07T12:03:36;7.97;;;1.88;;
67597;SDS011;62026;39.230;9.122;2023-05-07T12:06:07;3.05;;;1.58;;
67597;SDS011;62026;39.230;9.122;2023-05-07T12:08:38;3.03;;;1.67;;
67597;SDS011;62026;39.230;9.122;2023-05-07T12:11:10;4.00;;;1.60;;
67597;SDS011;62026;39.230;9.122;2023-05-07T12:13:42;4.43;;;1.90;;
67597;SDS011;62026;39.230;9.122;2023-05-07T12:16:09;9.63;;;3.35;;
67597;SDS011;62026;39.230;9.122;2023-05-07T12:18:36;4.63;;;1.60;;
67597;SDS011;62026;39.230;9.122;2023-05-07T12:21:03;4.80;;;1.63;;
67597;SDS011;62026;39.230;9.122;2023-05-07T12:23:31;2.95;;;1.50;;
67597;SDS011;62026;39.230;9.122;2023-05-07T12:26:00;4.63;;;1.50;;
67597;SDS011;62026;39.230;9.122;2023-05-07T12:28:27;3.00;;;1.58;;
67597;SDS011;62026;39.230;9.122;2023-05-07T12:30:54;3.60;;;1.48;;
67597;SDS011;62026;39.230;9.122;2023-05-07T12:33:24;3.63;;;1.60;;
67597;SDS011;62026;39.230;9.122;2023-05-07T12:35:54;2.92;;;1.33;;
67597;SDS011;62026;39.230;9.122;2023-05-07T12:38:21;7.13;;;1.73;;
67597;SDS011;62026;39.230;9.122;2023-05-07T12:40:48;2.40;;;1.40;;
67597;SDS011;62026;39.230;9.122;2023-05-07T12:43:25;5.10;;;1.90;;
67597;SDS011;62026;39.230;9.122;2023-05-07T12:45:55;4.20;;;1.63;;
67597;SDS011;62026;39.230;9.122;2023-05-07T12:48:30;5.93;;;1.80;;
67597;SDS011;62026;39.230;9.122;2023-05-07T12:50:58;5.80;;;1.42;;
67597;SDS011;62026;39.230;9.122;2023-05-07T12:53:26;2.92;;;1.30;;
67597;SDS011;62026;39.230;9.122;2023-05-07T12:55:55;5.32;;;1.30;;
67597;SDS011;62026;39.230;9.122;2023-05-07T12:58:31;2.33;;;1.55;;
67597;SDS011;62026;39.230;9.122;2023-05-07T13:01:00;4.78;;;1.38;;
67597;SDS011;62026;39.230;9.122;2023-05-07T13:03:32;4.78;;;1.17;;
67597;SDS011;62026;39.230;9.122;2023-05-07T13:06:01;6.47;;;2.40;;
67597;SDS011;62026;39.230;9.122;2023-05-07T13:08:37;3.58;;;1.50;;
67597;SDS011;62026;39.230;9.122;2023-05-07T13:11:08;4.68;;;1.20;;
67597;SDS011;62026;39.230;9.122;2023-05-07T13:13:36;4.35;;;1.33;;
67597;SDS011;62026;39.230;9.122;2023-05-07T13:16:05;5.07;;;1.20;;
67597;SDS011;62026;39.230;9.122;2023-05-07T13:18:34;3.33;;;1.10;;
67597;SDS011;62026;39.230;9.122;2023-05-07T13:21:00;4.68;;;1.25;;
67597;SDS011;62026;39.230;9.122;2023-05-07T13:23:27;2.85;;;1.15;;
67597;SDS011;62026;39.230;9.122;2023-05-07T13:25:54;8.40;;;1.48;;
67597;SDS011;62026;39.230;9.122;2023-05-07T13:28:20;3.63;;;1.20;;
67597;SDS011;62026;39.230;9.122;2023-05-07T13:30:47;3.90;;;1.23;;
67597;SDS011;62026;39.230;9.122;2023-05-07T13:33:14;4.30;;;1.13;;
67597;SDS011;62026;39.230;9.122;2023-05-07T13:35:41;1.55;;;1.00;;
67597;SDS011;62026;39.230;9.122;2023-05-07T13:38:07;4.22;;;1.42;;
67597;SDS011;62026;39.230;9.122;2023-05-07T13:40:33;3.17;;;0.98;;
67597;SDS011;62026;39.230;9.122;2023-05-07T13:42:59;3.20;;;1.02;;
67597;SDS011;62026;39.230;9.122;2023-05-07T13:45:30;3.97;;;1.20;;
67597;SDS011;62026;39.230;9.122;2023-05-07T13:47:56;3.90;;;1.15;;
67597;SDS011;62026;39.230;9.122;2023-05-07T13:50:23;3.58;;;1.13;;
67597;SDS011;62026;39.230;9.122;2023-05-07T13:52:49;3.22;;;0.93;;
67597;SDS011;62026;39.230;9.122;2023-05-07T13:55:21;10.63;;;1.00;;
67597;SDS011;62026;39.230;9.122;2023-05-07T13:57:54;2.08;;;0.95;;
67597;SDS011;62026;39.230;9.122;2023-05-07T14:00:25;3.13;;;1.00;;
67597;SDS011;62026;39.230;9.122;2023-05-07T14:02:53;4.53;;;1.02;;
67597;SDS011;62026;39.230;9.122;2023-05-07T14:05:20;3.35;;;1.02;;
67597;SDS011;62026;39.230;9.122;2023-05-07T14:07:53;2.03;;;0.85;;
67597;SDS011;62026;39.230;9.122;2023-05-07T14:10:23;4.93;;;0.75;;
67597;SDS011;62026;39.230;9.122;2023-05-07T14:12:49;1.85;;;0.95;;
67597;SDS011;62026;39.230;9.122;2023-05-07T14:15:15;1.75;;;0.98;;
67597;SDS011;62026;39.230;9.122;2023-05-07T14:17:42;2.45;;;0.73;;
67597;SDS011;62026;39.230;9.122;2023-05-07T14:20:09;5.00;;;0.95;;
67597;SDS011;62026;39.230;9.122;2023-05-07T14:22:36;1.85;;;0.80;;
67597;SDS011;62026;39.230;9.122;2023-05-07T14:25:02;3.58;;;0.80;;
67597;SDS011;62026;39.230;9.122;2023-05-07T14:27:29;2.83;;;0.77;;
67597;SDS011;62026;39.230;9.122;2023-05-07T14:29:55;2.53;;;0.88;;
67597;SDS011;62026;39.230;9.122;2023-05-07T14:32:21;4.55;;;1.05;;
67597;SDS011;62026;39.230;9.122;2023-05-07T14:34:47;4.97;;;0.90;;
67597;SDS011;62026;39.230;9.122;2023-05-07T14:37:14;5.97;;;0.82;;
67597;SDS011;62026;39.230;9.122;2023-05-07T14:39:40;3.58;;;0.80;;
67597;SDS011;62026;39.230;9.122;2023-05-07T14:42:06;2.05;;;0.80;;
67597;SDS011;62026;39.230;9.122;2023-05-07T14:44:36;1.70;;;0.80;;
67597;SDS011;62026;39.230;9.122;2023-05-07T14:47:02;5.32;;;1.00;;
67597;SDS011;62026;39.230;9.122;2023-05-07T14:49:28;2.03;;;0.80;;
67597;SDS011;62026;39.230;9.122;2023-05-07T14:51:56;3.08;;;0.70;;
67597;SDS011;62026;39.230;9.122;2023-05-07T14:54:25;1.45;;;0.80;;
67597;SDS011;62026;39.230;9.122;2023-05-07T14:56:51;2.80;;;1.00;;
67597;SDS011;62026;39.230;9.122;2023-05-07T14:59:18;1.85;;;0.70;;
67597;SDS011;62026;39.230;9.122;2023-05-07T15:01:49;1.48;;;0.70;;
67597;SDS011;62026;39.230;9.122;2023-05-07T15:04:15;3.42;;;0.95;;
67597;SDS011;62026;39.230;9.122;2023-05-07T15:06:42;1.40;;;0.90;;
67597;SDS011;62026;39.230;9.122;2023-05-07T15:09:08;1.30;;;0.90;;
67597;SDS011;62026;39.230;9.122;2023-05-07T15:11:34;2.78;;;0.80;;
67597;SDS011;62026;39.230;9.122;2023-05-07T15:14:02;3.40;;;1.10;;
67597;SDS011;62026;39.230;9.122;2023-05-07T15:16:28;3.70;;;0.90;;
67597;SDS011;62026;39.230;9.122;2023-05-07T15:18:54;2.85;;;0.80;;
67597;SDS011;62026;39.230;9.122;2023-05-07T15:21:20;2.40;;;0.88;;
67597;SDS011;62026;39.230;9.122;2023-05-07T15:23:46;1.70;;;0.77;;
67597;SDS011;62026;39.230;9.122;2023-05-07T15:26:12;5.10;;;0.98;;
67597;SDS011;62026;39.230;9.122;2023-05-07T15:28:38;1.73;;;1.05;;